Aérodrome :
LOGIN :

S'inscrire | Disclaimer

   EN    FR    IT 

 










Légende :    VFR   VFR Marginal   IFR   IFR Intensif   IFR Très Intensif
Visi : 
Plafond : 
>= 8 km
>= 3000ft
5 à 8 km
1000 à 3000 ft
1500m à 5 km
500 à 1000 ft
800 à 1500m
200 à 500 ft
< 800m
< 200 ft
Symboles :   Orages  Brouillard  Fortes neiges  Fortes précipitations  Vent > 20 kt
SIGMETs :   Divers  Orages  Givrage  Turbulence  Onde Orograph.  Cendres Volcan.






- Altitude de l'aérodrome : 277 ft
- Code IATA : JER


EGJJ - Jersey

DERNIER METAR :
  • 301550Z 26013KT 9999 FEW015 16/11 Q1014

METARs EXPIRÉS :
  • 301520Z 25013KT 220V280 9999 FEW018 17/10 Q1014
  • 301450Z 26012KT 9999 FEW015 17/11 Q1014
  • 301420Z 26012KT 9999 FEW015CB 16/10 Q1014
  • 301350Z 26011KT 220V280 9999 FEW015CB SCT018 16/11 Q1014
  • 301320Z 26009KT 230V300 9999 FEW016 15/11 Q1014
  • 301250Z 26011KT 230V290 9999 FEW015CB 15/11 Q1014

TAF TAF EGJJ
Valide du 30 à 15h jusqu'au 01 à 00h UTC


301356Z 3015/0100 25010KT 9999 FEW015
PROB40
TEMPO 3021/0100 8000 SHRA BKN015TCU
ATIS : +44 1534 498 073



MET'MAP, la Météo Aéronautique d'un coup d'oeil ! - Copyright ORBIFLY Décembre 2007 - Disclaimer

ORBIFLY MET'MAP TEAM :

Programmation & Développement : Alexandra Zaïnal
Sur une idée originale de : Baudouin d'Aumeries
Soutien technique & logistique : Manuel Goepfert
Assistance : Marc-Olivier Méhu




SOURCES & CREDITS :

   NOAA